sensor_id;sensor_type;location;lat;lon;timestamp;temperature;humidity
19974;DHT22;10148;47.694;9.442;2023-02-28T00:00:09;-1.00;99.90
19974;DHT22;10148;47.694;9.442;2023-02-28T00:02:39;-1.00;99.90
19974;DHT22;10148;47.694;9.442;2023-02-28T00:05:06;-1.00;99.90
19974;DHT22;10148;47.694;9.442;2023-02-28T00:07:32;-1.00;99.90
19974;DHT22;10148;47.694;9.442;2023-02-28T00:09:58;-1.00;99.90
19974;DHT22;10148;47.694;9.442;2023-02-28T00:12:24;-1.00;99.90
19974;DHT22;10148;47.694;9.442;2023-02-28T00:14:50;-1.00;99.90
19974;DHT22;10148;47.694;9.442;2023-02-28T00:17:16;-1.00;99.90
19974;DHT22;10148;47.694;9.442;2023-02-28T00:19:43;-1.00;99.90
19974;DHT22;10148;47.694;9.442;2023-02-28T00:22:09;-1.00;99.90
19974;DHT22;10148;47.694;9.442;2023-02-28T00:24:34;-1.00;99.90
19974;DHT22;10148;47.694;9.442;2023-02-28T00:27:00;-1.00;99.90
19974;DHT22;10148;47.694;9.442;2023-02-28T00:29:25;-1.00;99.90
19974;DHT22;10148;47.694;9.442;2023-02-28T00:31:51;-1.00;99.90
19974;DHT22;10148;47.694;9.442;2023-02-28T00:34:16;-1.00;99.90
19974;DHT22;10148;47.694;9.442;2023-02-28T00:36:42;-1.00;99.90
19974;DHT22;10148;47.694;9.442;2023-02-28T00:39:11;-1.00;99.90
19974;DHT22;10148;47.694;9.442;2023-02-28T00:41:37;-1.00;99.90
19974;DHT22;10148;47.694;9.442;2023-02-28T00:44:02;-1.00;99.90
19974;DHT22;10148;47.694;9.442;2023-02-28T00:46:28;-1.00;99.90
19974;DHT22;10148;47.694;9.442;2023-02-28T00:48:53;-1.00;99.90
19974;DHT22;10148;47.694;9.442;2023-02-28T00:51:19;-1.00;99.90
19974;DHT22;10148;47.694;9.442;2023-02-28T00:53:44;-1.00;99.90
19974;DHT22;10148;47.694;9.442;2023-02-28T00:56:10;-1.00;99.90
19974;DHT22;10148;47.694;9.442;2023-02-28T00:58:35;-1.00;99.90
19974;DHT22;10148;47.694;9.442;2023-02-28T01:01:01;-1.00;99.90
19974;DHT22;10148;47.694;9.442;2023-02-28T01:03:26;-1.00;99.90
19974;DHT22;10148;47.694;9.442;2023-02-28T01:05:52;-1.00;99.90
19974;DHT22;10148;47.694;9.442;2023-02-28T01:08:21;-1.00;99.90
19974;DHT22;10148;47.694;9.442;2023-02-28T01:10:47;-1.10;99.90
19974;DHT22;10148;47.694;9.442;2023-02-28T01:13:13;-1.10;99.90
19974;DHT22;10148;47.694;9.442;2023-02-28T01:15:45;-1.10;99.90
19974;DHT22;10148;47.694;9.442;2023-02-28T01:18:11;-1.10;99.90
19974;DHT22;10148;47.694;9.442;2023-02-28T01:20:37;-1.10;99.90
19974;DHT22;10148;47.694;9.442;2023-02-28T01:23:03;-1.10;99.90
19974;DHT22;10148;47.694;9.442;2023-02-28T01:25:29;-1.10;99.90
19974;DHT22;10148;47.694;9.442;2023-02-28T01:27:54;-1.10;99.90
19974;DHT22;10148;47.694;9.442;2023-02-28T01:30:20;-1.10;99.90
19974;DHT22;10148;47.694;9.442;2023-02-28T01:32:45;-1.10;99.90
19974;DHT22;10148;47.694;9.442;2023-02-28T01:35:11;-1.10;99.90
19974;DHT22;10148;47.694;9.442;2023-02-28T01:37:36;-1.10;99.90
19974;DHT22;10148;47.694;9.442;2023-02-28T01:40:03;-1.10;99.90
19974;DHT22;10148;47.694;9.442;2023-02-28T01:42:29;-1.10;99.90
19974;DHT22;10148;47.694;9.442;2023-02-28T01:47:27;-1.10;99.90
19974;DHT22;10148;47.694;9.442;2023-02-28T01:49:54;-1.10;99.90
19974;DHT22;10148;47.694;9.442;2023-02-28T01:52:21;-1.10;99.90
19974;DHT22;10148;47.694;9.442;2023-02-28T01:54:52;-1.10;99.90
19974;DHT22;10148;47.694;9.442;2023-02-28T01:57:22;-1.10;99.90
19974;DHT22;10148;47.694;9.442;2023-02-28T01:59:56;-1.10;99.90
19974;DHT22;10148;47.694;9.442;2023-02-28T02:02:24;-1.10;99.90
19974;DHT22;10148;47.694;9.442;2023-02-28T02:05:03;-1.10;99.90
19974;DHT22;10148;47.694;9.442;2023-02-28T02:07:34;-1.10;99.90
19974;DHT22;10148;47.694;9.442;2023-02-28T02:10:15;-1.10;99.90
19974;DHT22;10148;47.694;9.442;2023-02-28T02:13:12;-1.10;99.90
19974;DHT22;10148;47.694;9.442;2023-02-28T02:18:46;-1.10;99.90
19974;DHT22;10148;47.694;9.442;2023-02-28T02:35:10;-1.20;99.90
19974;DHT22;10148;47.694;9.442;2023-02-28T02:40:14;-1.30;99.90
19974;DHT22;10148;47.694;9.442;2023-02-28T02:43:07;-1.30;99.90
19974;DHT22;10148;47.694;9.442;2023-02-28T02:48:13;-1.20;99.90
19974;DHT22;10148;47.694;9.442;2023-02-28T02:50:43;-1.20;99.90
19974;DHT22;10148;47.694;9.442;2023-02-28T02:53:12;-1.30;99.90
19974;DHT22;10148;47.694;9.442;2023-02-28T02:55:41;-1.30;99.90
19974;DHT22;10148;47.694;9.442;2023-02-28T02:58:13;-1.30;99.90
19974;DHT22;10148;47.694;9.442;2023-02-28T03:00:44;-1.30;99.90
19974;DHT22;10148;47.694;9.442;2023-02-28T03:03:12;-1.30;99.90
19974;DHT22;10148;47.694;9.442;2023-02-28T03:05:47;-1.30;99.90
19974;DHT22;10148;47.694;9.442;2023-02-28T03:08:13;-1.30;99.90
19974;DHT22;10148;47.694;9.442;2023-02-28T03:10:42;-1.30;99.90
19974;DHT22;10148;47.694;9.442;2023-02-28T03:16:20;-1.30;99.90
19974;DHT22;10148;47.694;9.442;2023-02-28T03:27:05;-1.30;99.90
19974;DHT22;10148;47.694;9.442;2023-02-28T03:29:42;-1.30;99.90
19974;DHT22;10148;47.694;9.442;2023-02-28T03:32:24;-1.30;99.90
19974;DHT22;10148;47.694;9.442;2023-02-28T03:37:27;-1.30;99.90
19974;DHT22;10148;47.694;9.442;2023-02-28T03:40:25;-1.30;99.90
19974;DHT22;10148;47.694;9.442;2023-02-28T03:42:53;-1.30;99.90
19974;DHT22;10148;47.694;9.442;2023-02-28T03:45:24;-1.30;99.90
19974;DHT22;10148;47.694;9.442;2023-02-28T03:48:00;-1.30;99.90
19974;DHT22;10148;47.694;9.442;2023-02-28T03:50:32;-1.30;99.90
19974;DHT22;10148;47.694;9.442;2023-02-28T03:53:36;-1.30;99.90
19974;DHT22;10148;47.694;9.442;2023-02-28T03:56:33;-1.30;99.90
19974;DHT22;10148;47.694;9.442;2023-02-28T04:01:48;-1.30;99.90
19974;DHT22;10148;47.694;9.442;2023-02-28T04:04:15;-1.30;99.90
19974;DHT22;10148;47.694;9.442;2023-02-28T04:06:42;-1.40;99.90
19974;DHT22;10148;47.694;9.442;2023-02-28T04:09:11;-1.30;99.90
19974;DHT22;10148;47.694;9.442;2023-02-28T04:14:05;-1.40;99.90
19974;DHT22;10148;47.694;9.442;2023-02-28T04:16:32;-1.40;99.90
19974;DHT22;10148;47.694;9.442;2023-02-28T04:18:58;-1.40;99.90
19974;DHT22;10148;47.694;9.442;2023-02-28T04:21:48;-1.40;99.90
19974;DHT22;10148;47.694;9.442;2023-02-28T04:24:25;-1.40;99.90
19974;DHT22;10148;47.694;9.442;2023-02-28T04:26:53;-1.40;99.90
19974;DHT22;10148;47.694;9.442;2023-02-28T04:29:27;-1.40;99.90
19974;DHT22;10148;47.694;9.442;2023-02-28T04:31:54;-1.40;99.90
19974;DHT22;10148;47.694;9.442;2023-02-28T04:34:20;-1.40;99.90
19974;DHT22;10148;47.694;9.442;2023-02-28T04:36:47;-1.40;99.90
19974;DHT22;10148;47.694;9.442;2023-02-28T04:39:15;-1.40;99.90
19974;DHT22;10148;47.694;9.442;2023-02-28T04:41:40;-1.40;99.90
19974;DHT22;10148;47.694;9.442;2023-02-28T04:44:06;-1.40;99.90
19974;DHT22;10148;47.694;9.442;2023-02-28T04:46:31;-1.40;99.90
19974;DHT22;10148;47.694;9.442;2023-02-28T04:48:57;-1.40;99.90
19974;DHT22;10148;47.694;9.442;2023-02-28T04:51:23;-1.50;99.90
19974;DHT22;10148;47.694;9.442;2023-02-28T04:53:49;-1.40;99.90
19974;DHT22;10148;47.694;9.442;2023-02-28T04:56:16;-1.40;99.90
19974;DHT22;10148;47.694;9.442;2023-02-28T04:58:42;-1.50;99.90
19974;DHT22;10148;47.694;9.442;2023-02-28T05:03:49;-1.50;99.90
19974;DHT22;10148;47.694;9.442;2023-02-28T05:06:15;-1.50;99.90
19974;DHT22;10148;47.694;9.442;2023-02-28T05:08:41;-1.50;99.90
19974;DHT22;10148;47.694;9.442;2023-02-28T05:11:33;-1.50;99.90
19974;DHT22;10148;47.694;9.442;2023-02-28T05:14:02;-1.50;99.90
19974;DHT22;10148;47.694;9.442;2023-02-28T05:16:29;-1.50;99.90
19974;DHT22;10148;47.694;9.442;2023-02-28T05:18:54;-1.50;99.90
19974;DHT22;10148;47.694;9.442;2023-02-28T05:21:30;-1.50;99.90
19974;DHT22;10148;47.694;9.442;2023-02-28T05:23:58;-1.50;99.90
19974;DHT22;10148;47.694;9.442;2023-02-28T05:26:25;-1.50;99.90
19974;DHT22;10148;47.694;9.442;2023-02-28T05:28:50;-1.50;99.90
19974;DHT22;10148;47.694;9.442;2023-02-28T05:31:16;-1.50;99.90
19974;DHT22;10148;47.694;9.442;2023-02-28T05:33:42;-1.50;99.90
19974;DHT22;10148;47.694;9.442;2023-02-28T05:36:07;-1.50;99.90
19974;DHT22;10148;47.694;9.442;2023-02-28T05:38:33;-1.60;99.90
19974;DHT22;10148;47.694;9.442;2023-02-28T05:40:59;-1.60;99.90
19974;DHT22;10148;47.694;9.442;2023-02-28T05:43:24;-1.60;99.90
19974;DHT22;10148;47.694;9.442;2023-02-28T05:45:50;-1.60;99.90
19974;DHT22;10148;47.694;9.442;2023-02-28T05:48:16;-1.60;99.90
19974;DHT22;10148;47.694;9.442;2023-02-28T05:50:42;-1.60;99.90
19974;DHT22;10148;47.694;9.442;2023-02-28T05:53:10;-1.60;99.90
19974;DHT22;10148;47.694;9.442;2023-02-28T05:55:35;-1.60;99.90
19974;DHT22;10148;47.694;9.442;2023-02-28T05:58:02;-1.60;99.90
19974;DHT22;10148;47.694;9.442;2023-02-28T06:00:28;-1.60;99.90
19974;DHT22;10148;47.694;9.442;2023-02-28T06:02:53;-1.70;99.90
19974;DHT22;10148;47.694;9.442;2023-02-28T06:05:22;-1.70;99.90
19974;DHT22;10148;47.694;9.442;2023-02-28T06:07:47;-1.70;99.90
19974;DHT22;10148;47.694;9.442;2023-02-28T06:10:13;-1.70;99.90
19974;DHT22;10148;47.694;9.442;2023-02-28T06:12:39;-1.70;99.90
19974;DHT22;10148;47.694;9.442;2023-02-28T06:15:07;-1.70;99.90
19974;DHT22;10148;47.694;9.442;2023-02-28T06:17:33;-1.70;99.90
19974;DHT22;10148;47.694;9.442;2023-02-28T06:19:58;-1.70;99.90
19974;DHT22;10148;47.694;9.442;2023-02-28T06:22:24;-1.70;99.90
19974;DHT22;10148;47.694;9.442;2023-02-28T06:24:50;-1.70;99.90
19974;DHT22;10148;47.694;9.442;2023-02-28T06:27:15;-1.70;99.90
19974;DHT22;10148;47.694;9.442;2023-02-28T06:29:41;-1.70;99.90
19974;DHT22;10148;47.694;9.442;2023-02-28T06:32:06;-1.70;99.90
19974;DHT22;10148;47.694;9.442;2023-02-28T06:34:32;-1.70;99.90
19974;DHT22;10148;47.694;9.442;2023-02-28T06:36:59;-1.60;99.90
19974;DHT22;10148;47.694;9.442;2023-02-28T06:39:28;-1.60;99.90
19974;DHT22;10148;47.694;9.442;2023-02-28T06:41:53;-1.60;99.90
19974;DHT22;10148;47.694;9.442;2023-02-28T06:44:19;-1.60;99.90
19974;DHT22;10148;47.694;9.442;2023-02-28T06:46:45;-1.60;99.90
19974;DHT22;10148;47.694;9.442;2023-02-28T06:49:11;-1.60;99.90
19974;DHT22;10148;47.694;9.442;2023-02-28T06:51:41;-1.60;99.90
19974;DHT22;10148;47.694;9.442;2023-02-28T06:54:09;-1.60;99.90
19974;DHT22;10148;47.694;9.442;2023-02-28T06:56:35;-1.50;99.90
19974;DHT22;10148;47.694;9.442;2023-02-28T06:59:00;-1.50;99.90
19974;DHT22;10148;47.694;9.442;2023-02-28T07:01:26;-1.40;99.90
19974;DHT22;10148;47.694;9.442;2023-02-28T07:03:53;-1.40;99.90
19974;DHT22;10148;47.694;9.442;2023-02-28T07:06:20;-1.40;99.90
19974;DHT22;10148;47.694;9.442;2023-02-28T07:08:48;-1.30;99.90
19974;DHT22;10148;47.694;9.442;2023-02-28T07:11:14;-1.40;99.90
19974;DHT22;10148;47.694;9.442;2023-02-28T07:13:40;-1.30;99.90
19974;DHT22;10148;47.694;9.442;2023-02-28T07:16:07;-1.30;99.90
19974;DHT22;10148;47.694;9.442;2023-02-28T07:18:35;-1.30;99.90
19974;DHT22;10148;47.694;9.442;2023-02-28T07:21:06;-1.30;99.90
19974;DHT22;10148;47.694;9.442;2023-02-28T07:23:32;-1.30;99.90
19974;DHT22;10148;47.694;9.442;2023-02-28T07:25:57;-1.30;99.90
19974;DHT22;10148;47.694;9.442;2023-02-28T07:28:23;-1.20;99.90
19974;DHT22;10148;47.694;9.442;2023-02-28T07:30:49;-1.20;99.90
19974;DHT22;10148;47.694;9.442;2023-02-28T07:33:15;-1.10;99.90
19974;DHT22;10148;47.694;9.442;2023-02-28T07:35:40;-1.00;99.90
19974;DHT22;10148;47.694;9.442;2023-02-28T07:38:06;-1.00;99.90
19974;DHT22;10148;47.694;9.442;2023-02-28T07:40:33;-1.00;99.90
19974;DHT22;10148;47.694;9.442;2023-02-28T07:42:59;-1.00;99.90
19974;DHT22;10148;47.694;9.442;2023-02-28T07:45:26;-1.00;99.90
19974;DHT22;10148;47.694;9.442;2023-02-28T07:47:51;-1.00;99.90
19974;DHT22;10148;47.694;9.442;2023-02-28T07:50:17;-1.00;99.90
19974;DHT22;10148;47.694;9.442;2023-02-28T07:52:42;-0.90;99.90
19974;DHT22;10148;47.694;9.442;2023-02-28T07:55:09;-0.90;99.90
19974;DHT22;10148;47.694;9.442;2023-02-28T07:57:35;-0.90;99.90
19974;DHT22;10148;47.694;9.442;2023-02-28T08:00:03;-0.90;99.90
19974;DHT22;10148;47.694;9.442;2023-02-28T08:02:29;-0.80;99.90
19974;DHT22;10148;47.694;9.442;2023-02-28T08:04:54;-0.80;99.90
19974;DHT22;10148;47.694;9.442;2023-02-28T08:07:21;-0.80;99.90
19974;DHT22;10148;47.694;9.442;2023-02-28T08:09:46;-0.70;99.90
19974;DHT22;10148;47.694;9.442;2023-02-28T08:12:12;-0.70;99.90
19974;DHT22;10148;47.694;9.442;2023-02-28T08:14:38;-0.70;99.90
19974;DHT22;10148;47.694;9.442;2023-02-28T08:17:27;-0.60;99.90
19974;DHT22;10148;47.694;9.442;2023-02-28T08:19:56;-0.60;99.90
19974;DHT22;10148;47.694;9.442;2023-02-28T08:22:21;-0.50;99.90
19974;DHT22;10148;47.694;9.442;2023-02-28T08:24:47;-0.50;99.90
19974;DHT22;10148;47.694;9.442;2023-02-28T08:27:13;-0.50;99.90
19974;DHT22;10148;47.694;9.442;2023-02-28T08:29:39;-0.50;99.90
19974;DHT22;10148;47.694;9.442;2023-02-28T08:32:06;-0.50;99.90
19974;DHT22;10148;47.694;9.442;2023-02-28T08:34:31;-0.50;99.90
19974;DHT22;10148;47.694;9.442;2023-02-28T08:36:57;-0.50;99.90
19974;DHT22;10148;47.694;9.442;2023-02-28T08:39:22;-0.50;99.90
19974;DHT22;10148;47.694;9.442;2023-02-28T08:41:48;-0.40;99.90
19974;DHT22;10148;47.694;9.442;2023-02-28T08:44:13;-0.30;99.90
19974;DHT22;10148;47.694;9.442;2023-02-28T08:46:39;-0.30;99.90
19974;DHT22;10148;47.694;9.442;2023-02-28T08:49:05;-0.30;99.90
19974;DHT22;10148;47.694;9.442;2023-02-28T08:51:30;-0.20;99.90
19974;DHT22;10148;47.694;9.442;2023-02-28T08:53:58;-0.10;99.90
19974;DHT22;10148;47.694;9.442;2023-02-28T08:56:26;-0.10;99.90
19974;DHT22;10148;47.694;9.442;2023-02-28T08:58:53;0.00;99.90
19974;DHT22;10148;47.694;9.442;2023-02-28T09:01:23;0.10;99.90
19974;DHT22;10148;47.694;9.442;2023-02-28T09:03:50;0.10;99.90
19974;DHT22;10148;47.694;9.442;2023-02-28T09:06:18;0.00;99.90
19974;DHT22;10148;47.694;9.442;2023-02-28T09:08:44;0.10;99.90
19974;DHT22;10148;47.694;9.442;2023-02-28T09:11:10;0.20;99.90
19974;DHT22;10148;47.694;9.442;2023-02-28T09:13:36;0.20;99.90
19974;DHT22;10148;47.694;9.442;2023-02-28T09:16:04;0.10;99.90
19974;DHT22;10148;47.694;9.442;2023-02-28T09:18:30;0.20;99.90
19974;DHT22;10148;47.694;9.442;2023-02-28T09:20:56;0.20;99.90
19974;DHT22;10148;47.694;9.442;2023-02-28T09:23:24;0.20;99.90
19974;DHT22;10148;47.694;9.442;2023-02-28T09:25:54;0.20;99.90
19974;DHT22;10148;47.694;9.442;2023-02-28T09:28:20;0.20;99.90
19974;DHT22;10148;47.694;9.442;2023-02-28T09:30:49;0.20;99.90
19974;DHT22;10148;47.694;9.442;2023-02-28T09:33:16;0.40;99.90
19974;DHT22;10148;47.694;9.442;2023-02-28T09:35:42;0.40;99.90
19974;DHT22;10148;47.694;9.442;2023-02-28T09:38:09;0.40;99.90
19974;DHT22;10148;47.694;9.442;2023-02-28T09:40:37;0.40;99.90
19974;DHT22;10148;47.694;9.442;2023-02-28T09:43:25;0.40;99.90
19974;DHT22;10148;47.694;9.442;2023-02-28T09:48:36;0.50;99.90
19974;DHT22;10148;47.694;9.442;2023-02-28T09:51:05;0.50;99.90
19974;DHT22;10148;47.694;9.442;2023-02-28T09:53:37;0.50;99.90
19974;DHT22;10148;47.694;9.442;2023-02-28T09:56:09;0.60;99.90
19974;DHT22;10148;47.694;9.442;2023-02-28T09:58:49;0.50;99.90
19974;DHT22;10148;47.694;9.442;2023-02-28T10:09:54;0.80;99.90
19974;DHT22;10148;47.694;9.442;2023-02-28T10:12:21;0.80;99.90
19974;DHT22;10148;47.694;9.442;2023-02-28T10:14:50;0.80;99.90
19974;DHT22;10148;47.694;9.442;2023-02-28T10:17:21;0.80;99.90
19974;DHT22;10148;47.694;9.442;2023-02-28T10:19:56;1.00;99.90
19974;DHT22;10148;47.694;9.442;2023-02-28T10:22:55;1.20;99.90
19974;DHT22;10148;47.694;9.442;2023-02-28T10:25:25;1.30;99.90
19974;DHT22;10148;47.694;9.442;2023-02-28T10:28:15;1.20;99.90
19974;DHT22;10148;47.694;9.442;2023-02-28T10:30:45;1.20;99.90
19974;DHT22;10148;47.694;9.442;2023-02-28T10:33:25;1.10;99.90
19974;DHT22;10148;47.694;9.442;2023-02-28T10:35:52;1.00;99.90
19974;DHT22;10148;47.694;9.442;2023-02-28T10:38:26;1.00;99.90
19974;DHT22;10148;47.694;9.442;2023-02-28T10:41:05;1.10;99.90
19974;DHT22;10148;47.694;9.442;2023-02-28T10:43:31;1.20;99.90
19974;DHT22;10148;47.694;9.442;2023-02-28T10:48:36;1.30;99.90
19974;DHT22;10148;47.694;9.442;2023-02-28T10:51:03;1.30;99.90
19974;DHT22;10148;47.694;9.442;2023-02-28T10:53:38;1.10;99.90
19974;DHT22;10148;47.694;9.442;2023-02-28T11:01:15;1.20;99.90
19974;DHT22;10148;47.694;9.442;2023-02-28T11:03:41;1.30;99.90
19974;DHT22;10148;47.694;9.442;2023-02-28T11:06:13;1.30;99.90
19974;DHT22;10148;47.694;9.442;2023-02-28T11:08:54;1.40;99.90
19974;DHT22;10148;47.694;9.442;2023-02-28T11:11:22;1.50;99.90
19974;DHT22;10148;47.694;9.442;2023-02-28T11:13:52;1.50;99.90
19974;DHT22;10148;47.694;9.442;2023-02-28T11:16:18;1.40;99.90
19974;DHT22;10148;47.694;9.442;2023-02-28T11:18:49;1.40;99.90
19974;DHT22;10148;47.694;9.442;2023-02-28T11:21:26;1.50;99.90
19974;DHT22;10148;47.694;9.442;2023-02-28T11:24:00;1.50;99.90
19974;DHT22;10148;47.694;9.442;2023-02-28T11:26:38;1.40;99.90
19974;DHT22;10148;47.694;9.442;2023-02-28T11:29:15;1.40;99.90
19974;DHT22;10148;47.694;9.442;2023-02-28T11:31:42;1.40;99.90
19974;DHT22;10148;47.694;9.442;2023-02-28T11:34:25;1.40;99.90
19974;DHT22;10148;47.694;9.442;2023-02-28T11:36:53;1.30;99.90
19974;DHT22;10148;47.694;9.442;2023-02-28T11:39:19;1.40;99.90
19974;DHT22;10148;47.694;9.442;2023-02-28T11:42:20;1.50;99.90
19974;DHT22;10148;47.694;9.442;2023-02-28T11:47:52;1.50;99.90
19974;DHT22;10148;47.694;9.442;2023-02-28T11:50:47;1.50;99.90
19974;DHT22;10148;47.694;9.442;2023-02-28T11:53:27;1.40;99.90
19974;DHT22;10148;47.694;9.442;2023-02-28T11:56:07;1.60;99.90
19974;DHT22;10148;47.694;9.442;2023-02-28T11:58:36;1.80;99.90
19974;DHT22;10148;47.694;9.442;2023-02-28T12:07:32;2.10;99.90
19974;DHT22;10148;47.694;9.442;2023-02-28T12:10:25;2.00;99.90
19974;DHT22;10148;47.694;9.442;2023-02-28T12:18:37;2.30;99.90
19974;DHT22;10148;47.694;9.442;2023-02-28T12:21:30;2.40;99.90
19974;DHT22;10148;47.694;9.442;2023-02-28T12:26:43;2.60;99.90
19974;DHT22;10148;47.694;9.442;2023-02-28T12:32:09;2.60;99.90
19974;DHT22;10148;47.694;9.442;2023-02-28T12:35:00;2.70;99.90
19974;DHT22;10148;47.694;9.442;2023-02-28T12:37:44;2.70;99.90
19974;DHT22;10148;47.694;9.442;2023-02-28T12:40:15;2.50;99.90
19974;DHT22;10148;47.694;9.442;2023-02-28T12:42:56;2.50;99.90
19974;DHT22;10148;47.694;9.442;2023-02-28T12:45:25;2.40;99.90
19974;DHT22;10148;47.694;9.442;2023-02-28T12:47:57;2.20;99.90
19974;DHT22;10148;47.694;9.442;2023-02-28T12:50:26;2.20;99.90
19974;DHT22;10148;47.694;9.442;2023-02-28T12:53:11;2.30;99.90
19974;DHT22;10148;47.694;9.442;2023-02-28T12:55:50;2.30;99.90
19974;DHT22;10148;47.694;9.442;2023-02-28T12:58:20;2.50;99.90
19974;DHT22;10148;47.694;9.442;2023-02-28T13:03:51;2.70;99.90
19974;DHT22;10148;47.694;9.442;2023-02-28T13:09:04;2.60;99.90
19974;DHT22;10148;47.694;9.442;2023-02-28T13:11:42;2.80;99.90
19974;DHT22;10148;47.694;9.442;2023-02-28T13:14:30;2.80;99.90
19974;DHT22;10148;47.694;9.442;2023-02-28T13:17:11;3.00;99.90
19974;DHT22;10148;47.694;9.442;2023-02-28T13:19:44;3.00;99.90
19974;DHT22;10148;47.694;9.442;2023-02-28T13:28:09;3.70;99.90
19974;DHT22;10148;47.694;9.442;2023-02-28T13:33:34;3.40;99.90
19974;DHT22;10148;47.694;9.442;2023-02-28T13:38:48;3.10;99.90
19974;DHT22;10148;47.694;9.442;2023-02-28T13:41:41;2.90;99.90
19974;DHT22;10148;47.694;9.442;2023-02-28T13:49:29;2.70;99.90
19974;DHT22;10148;47.694;9.442;2023-02-28T14:06:27;2.60;99.90
19974;DHT22;10148;47.694;9.442;2023-02-28T14:11:32;2.40;99.90
19974;DHT22;10148;47.694;9.442;2023-02-28T14:13:58;2.30;99.90
19974;DHT22;10148;47.694;9.442;2023-02-28T14:16:35;2.30;99.90
19974;DHT22;10148;47.694;9.442;2023-02-28T14:21:38;2.40;99.90
19974;DHT22;10148;47.694;9.442;2023-02-28T14:24:39;2.30;99.90
19974;DHT22;10148;47.694;9.442;2023-02-28T14:27:35;2.70;99.90
19974;DHT22;10148;47.694;9.442;2023-02-28T14:33:09;3.30;99.90
19974;DHT22;10148;47.694;9.442;2023-02-28T14:38:26;4.50;99.90
19974;DHT22;10148;47.694;9.442;2023-02-28T14:40:55;4.50;99.90
19974;DHT22;10148;47.694;9.442;2023-02-28T14:43:26;4.40;99.90
19974;DHT22;10148;47.694;9.442;2023-02-28T14:45:56;3.90;99.90
19974;DHT22;10148;47.694;9.442;2023-02-28T14:48:23;3.60;99.90
19974;DHT22;10148;47.694;9.442;2023-02-28T14:50:53;3.30;99.90
19974;DHT22;10148;47.694;9.442;2023-02-28T14:53:21;3.10;99.90
19974;DHT22;10148;47.694;9.442;2023-02-28T14:55:48;3.00;99.90
19974;DHT22;10148;47.694;9.442;2023-02-28T14:58:24;2.90;99.90
19974;DHT22;10148;47.694;9.442;2023-02-28T15:00:52;2.80;99.90
19974;DHT22;10148;47.694;9.442;2023-02-28T15:03:31;2.60;99.90
19974;DHT22;10148;47.694;9.442;2023-02-28T15:05:59;2.60;99.90
19974;DHT22;10148;47.694;9.442;2023-02-28T15:08:26;2.50;99.90
19974;DHT22;10148;47.694;9.442;2023-02-28T15:10:58;2.40;99.90
19974;DHT22;10148;47.694;9.442;2023-02-28T15:13:39;2.50;99.90
19974;DHT22;10148;47.694;9.442;2023-02-28T15:16:10;2.50;99.90
19974;DHT22;10148;47.694;9.442;2023-02-28T15:21:17;2.40;99.90
19974;DHT22;10148;47.694;9.442;2023-02-28T15:23:49;2.30;99.90
19974;DHT22;10148;47.694;9.442;2023-02-28T15:26:20;2.30;99.90
19974;DHT22;10148;47.694;9.442;2023-02-28T15:28:50;2.30;99.90
19974;DHT22;10148;47.694;9.442;2023-02-28T15:31:21;2.20;99.90
19974;DHT22;10148;47.694;9.442;2023-02-28T15:34:02;2.10;99.90
19974;DHT22;10148;47.694;9.442;2023-02-28T15:36:33;2.00;99.90
19974;DHT22;10148;47.694;9.442;2023-02-28T15:39:03;2.00;99.90
19974;DHT22;10148;47.694;9.442;2023-02-28T15:41:37;1.90;99.90
19974;DHT22;10148;47.694;9.442;2023-02-28T15:49:24;1.80;99.90
19974;DHT22;10148;47.694;9.442;2023-02-28T15:51:52;1.80;99.90
19974;DHT22;10148;47.694;9.442;2023-02-28T15:54:25;1.80;99.90
19974;DHT22;10148;47.694;9.442;2023-02-28T15:56:54;1.80;99.90
19974;DHT22;10148;47.694;9.442;2023-02-28T15:59:29;1.80;99.90
19974;DHT22;10148;47.694;9.442;2023-02-28T16:02:15;1.80;99.90
19974;DHT22;10148;47.694;9.442;2023-02-28T16:05:01;1.80;99.90
19974;DHT22;10148;47.694;9.442;2023-02-28T16:07:28;1.70;99.90
19974;DHT22;10148;47.694;9.442;2023-02-28T16:09:53;1.50;99.90
19974;DHT22;10148;47.694;9.442;2023-02-28T16:12:20;1.50;99.90
19974;DHT22;10148;47.694;9.442;2023-02-28T16:14:51;1.40;99.90
19974;DHT22;10148;47.694;9.442;2023-02-28T16:17:21;1.60;99.90
19974;DHT22;10148;47.694;9.442;2023-02-28T16:19:47;2.00;99.90
19974;DHT22;10148;47.694;9.442;2023-02-28T16:22:13;2.10;99.90
19974;DHT22;10148;47.694;9.442;2023-02-28T16:24:39;2.20;99.90
19974;DHT22;10148;47.694;9.442;2023-02-28T16:27:05;2.20;99.90
19974;DHT22;10148;47.694;9.442;2023-02-28T16:29:35;2.00;99.90
19974;DHT22;10148;47.694;9.442;2023-02-28T16:32:01;2.00;99.90
19974;DHT22;10148;47.694;9.442;2023-02-28T16:34:29;2.00;99.90
19974;DHT22;10148;47.694;9.442;2023-02-28T16:36:54;2.20;99.90
19974;DHT22;10148;47.694;9.442;2023-02-28T16:39:20;2.00;99.90
19974;DHT22;10148;47.694;9.442;2023-02-28T16:41:47;1.80;99.90
19974;DHT22;10148;47.694;9.442;2023-02-28T16:46:51;1.50;99.90
19974;DHT22;10148;47.694;9.442;2023-02-28T16:49:16;1.50;99.90
19974;DHT22;10148;47.694;9.442;2023-02-28T16:51:42;1.40;99.90
19974;DHT22;10148;47.694;9.442;2023-02-28T16:54:08;1.30;99.90
19974;DHT22;10148;47.694;9.442;2023-02-28T16:56:34;1.10;99.90
19974;DHT22;10148;47.694;9.442;2023-02-28T16:59:01;1.00;99.90
19974;DHT22;10148;47.694;9.442;2023-02-28T17:01:27;0.90;99.90
19974;DHT22;10148;47.694;9.442;2023-02-28T17:03:53;0.80;99.90
19974;DHT22;10148;47.694;9.442;2023-02-28T17:06:27;0.80;99.90
19974;DHT22;10148;47.694;9.442;2023-02-28T17:08:57;0.70;99.90
19974;DHT22;10148;47.694;9.442;2023-02-28T17:11:23;0.60;99.90
19974;DHT22;10148;47.694;9.442;2023-02-28T17:13:49;0.50;99.90
19974;DHT22;10148;47.694;9.442;2023-02-28T17:18:53;0.50;99.90
19974;DHT22;10148;47.694;9.442;2023-02-28T17:21:19;0.40;99.90
19974;DHT22;10148;47.694;9.442;2023-02-28T17:23:45;0.40;99.90
19974;DHT22;10148;47.694;9.442;2023-02-28T17:26:14;0.40;99.90
19974;DHT22;10148;47.694;9.442;2023-02-28T17:28:40;0.30;99.90
19974;DHT22;10148;47.694;9.442;2023-02-28T17:31:08;0.30;99.90
19974;DHT22;10148;47.694;9.442;2023-02-28T17:33:33;0.30;99.90
19974;DHT22;10148;47.694;9.442;2023-02-28T17:35:59;0.30;99.90
19974;DHT22;10148;47.694;9.442;2023-02-28T17:38:24;0.20;99.90
19974;DHT22;10148;47.694;9.442;2023-02-28T17:40:50;0.20;99.90
19974;DHT22;10148;47.694;9.442;2023-02-28T17:43:15;0.20;99.90
19974;DHT22;10148;47.694;9.442;2023-02-28T17:45:41;0.20;99.90
19974;DHT22;10148;47.694;9.442;2023-02-28T17:48:09;0.20;99.90
19974;DHT22;10148;47.694;9.442;2023-02-28T17:50:36;0.10;99.90
19974;DHT22;10148;47.694;9.442;2023-02-28T17:53:01;0.10;99.90
19974;DHT22;10148;47.694;9.442;2023-02-28T17:55:27;0.10;99.90
19974;DHT22;10148;47.694;9.442;2023-02-28T17:57:52;0.10;99.90
19974;DHT22;10148;47.694;9.442;2023-02-28T18:00:18;0.10;99.90
19974;DHT22;10148;47.694;9.442;2023-02-28T18:02:44;0.10;99.90
19974;DHT22;10148;47.694;9.442;2023-02-28T18:05:10;0.00;99.90
19974;DHT22;10148;47.694;9.442;2023-02-28T18:07:39;0.00;99.90
19974;DHT22;10148;47.694;9.442;2023-02-28T18:10:06;0.00;99.90
19974;DHT22;10148;47.694;9.442;2023-02-28T18:12:32;0.00;99.90
19974;DHT22;10148;47.694;9.442;2023-02-28T18:14:57;0.00;99.90
19974;DHT22;10148;47.694;9.442;2023-02-28T18:17:23;-0.10;99.90
19974;DHT22;10148;47.694;9.442;2023-02-28T18:19:49;-0.10;99.90